sensor_id;sensor_type;location;lat;lon;timestamp;P1;durP1;ratioP1;P2;durP2;ratioP2
19312;SDS011;9791;50.820;4.406;2022-12-18T00:01:28;36.50;;;20.13;;
19312;SDS011;9791;50.820;4.406;2022-12-18T00:03:56;40.20;;;20.10;;
19312;SDS011;9791;50.820;4.406;2022-12-18T00:06:22;39.57;;;19.00;;
19312;SDS011;9791;50.820;4.406;2022-12-18T00:08:48;37.37;;;19.80;;
19312;SDS011;9791;50.820;4.406;2022-12-18T00:11:16;33.17;;;17.80;;
19312;SDS011;9791;50.820;4.406;2022-12-18T00:13:42;34.20;;;18.63;;
19312;SDS011;9791;50.820;4.406;2022-12-18T00:16:09;34.93;;;18.67;;
19312;SDS011;9791;50.820;4.406;2022-12-18T00:18:35;32.63;;;17.90;;
19312;SDS011;9791;50.820;4.406;2022-12-18T00:21:02;34.47;;;18.13;;
19312;SDS011;9791;50.820;4.406;2022-12-18T00:23:29;33.10;;;17.27;;
19312;SDS011;9791;50.820;4.406;2022-12-18T00:25:59;33.30;;;17.00;;
19312;SDS011;9791;50.820;4.406;2022-12-18T00:28:25;31.33;;;16.30;;
19312;SDS011;9791;50.820;4.406;2022-12-18T00:30:59;32.57;;;17.40;;
19312;SDS011;9791;50.820;4.406;2022-12-18T00:33:25;28.83;;;15.83;;
19312;SDS011;9791;50.820;4.406;2022-12-18T00:35:51;37.30;;;19.37;;
19312;SDS011;9791;50.820;4.406;2022-12-18T00:38:17;33.50;;;17.37;;
19312;SDS011;9791;50.820;4.406;2022-12-18T00:40:45;32.77;;;17.83;;
19312;SDS011;9791;50.820;4.406;2022-12-18T00:43:11;29.87;;;16.83;;
19312;SDS011;9791;50.820;4.406;2022-12-18T00:45:37;30.80;;;17.00;;
19312;SDS011;9791;50.820;4.406;2022-12-18T00:48:03;30.03;;;17.00;;
19312;SDS011;9791;50.820;4.406;2022-12-18T00:50:29;30.60;;;17.33;;
19312;SDS011;9791;50.820;4.406;2022-12-18T00:52:55;27.47;;;14.33;;
19312;SDS011;9791;50.820;4.406;2022-12-18T00:55:21;33.20;;;17.10;;
19312;SDS011;9791;50.820;4.406;2022-12-18T00:57:47;26.60;;;14.93;;
19312;SDS011;9791;50.820;4.406;2022-12-18T01:00:14;29.20;;;15.77;;
19312;SDS011;9791;50.820;4.406;2022-12-18T01:02:40;27.17;;;15.17;;
19312;SDS011;9791;50.820;4.406;2022-12-18T01:05:07;28.93;;;14.93;;
19312;SDS011;9791;50.820;4.406;2022-12-18T01:07:33;30.07;;;15.03;;
19312;SDS011;9791;50.820;4.406;2022-12-18T01:09:59;26.30;;;15.53;;
19312;SDS011;9791;50.820;4.406;2022-12-18T01:12:25;25.87;;;15.07;;
19312;SDS011;9791;50.820;4.406;2022-12-18T01:14:51;27.60;;;14.23;;
19312;SDS011;9791;50.820;4.406;2022-12-18T01:17:18;29.60;;;14.70;;
19312;SDS011;9791;50.820;4.406;2022-12-18T01:19:44;22.80;;;13.10;;
19312;SDS011;9791;50.820;4.406;2022-12-18T01:22:10;28.20;;;14.13;;
19312;SDS011;9791;50.820;4.406;2022-12-18T01:24:36;24.00;;;12.97;;
19312;SDS011;9791;50.820;4.406;2022-12-18T01:27:02;27.87;;;13.20;;
19312;SDS011;9791;50.820;4.406;2022-12-18T01:29:28;23.97;;;12.60;;
19312;SDS011;9791;50.820;4.406;2022-12-18T01:31:55;26.33;;;12.00;;
19312;SDS011;9791;50.820;4.406;2022-12-18T01:34:22;23.53;;;12.43;;
19312;SDS011;9791;50.820;4.406;2022-12-18T01:36:48;19.63;;;11.50;;
19312;SDS011;9791;50.820;4.406;2022-12-18T01:39:16;21.97;;;11.77;;
19312;SDS011;9791;50.820;4.406;2022-12-18T01:41:43;22.50;;;12.40;;
19312;SDS011;9791;50.820;4.406;2022-12-18T01:47:17;19.93;;;11.23;;
19312;SDS011;9791;50.820;4.406;2022-12-18T01:49:43;21.63;;;12.03;;
19312;SDS011;9791;50.820;4.406;2022-12-18T01:52:09;23.43;;;12.33;;
19312;SDS011;9791;50.820;4.406;2022-12-18T01:54:35;18.87;;;10.77;;
19312;SDS011;9791;50.820;4.406;2022-12-18T01:57:01;25.40;;;11.97;;
19312;SDS011;9791;50.820;4.406;2022-12-18T01:59:27;19.43;;;10.70;;
19312;SDS011;9791;50.820;4.406;2022-12-18T02:01:54;19.50;;;10.87;;
19312;SDS011;9791;50.820;4.406;2022-12-18T02:04:23;21.73;;;11.60;;
19312;SDS011;9791;50.820;4.406;2022-12-18T02:06:51;19.17;;;10.83;;
19312;SDS011;9791;50.820;4.406;2022-12-18T02:09:22;20.07;;;10.37;;
19312;SDS011;9791;50.820;4.406;2022-12-18T02:11:52;19.80;;;10.40;;
19312;SDS011;9791;50.820;4.406;2022-12-18T02:14:26;19.87;;;10.87;;
19312;SDS011;9791;50.820;4.406;2022-12-18T02:17:06;21.40;;;11.20;;
19312;SDS011;9791;50.820;4.406;2022-12-18T02:22:18;18.83;;;10.37;;
19312;SDS011;9791;50.820;4.406;2022-12-18T02:27:32;19.90;;;11.03;;
19312;SDS011;9791;50.820;4.406;2022-12-18T02:29:59;20.53;;;10.47;;
19312;SDS011;9791;50.820;4.406;2022-12-18T02:32:28;20.83;;;11.60;;
19312;SDS011;9791;50.820;4.406;2022-12-18T02:34:56;20.73;;;10.33;;
19312;SDS011;9791;50.820;4.406;2022-12-18T02:37:23;20.63;;;11.60;;
19312;SDS011;9791;50.820;4.406;2022-12-18T02:39:49;22.10;;;11.13;;
19312;SDS011;9791;50.820;4.406;2022-12-18T02:42:18;18.00;;;10.10;;
19312;SDS011;9791;50.820;4.406;2022-12-18T02:44:46;23.17;;;11.47;;
19312;SDS011;9791;50.820;4.406;2022-12-18T02:47:12;18.27;;;10.17;;
19312;SDS011;9791;50.820;4.406;2022-12-18T02:52:12;19.33;;;11.00;;
19312;SDS011;9791;50.820;4.406;2022-12-18T02:54:48;22.07;;;10.80;;
19312;SDS011;9791;50.820;4.406;2022-12-18T02:57:21;25.23;;;11.17;;
19312;SDS011;9791;50.820;4.406;2022-12-18T03:10:12;19.73;;;10.77;;
19312;SDS011;9791;50.820;4.406;2022-12-18T03:12:40;16.30;;;10.33;;
19312;SDS011;9791;50.820;4.406;2022-12-18T03:15:19;20.80;;;10.70;;
19312;SDS011;9791;50.820;4.406;2022-12-18T03:17:48;20.47;;;10.17;;
19312;SDS011;9791;50.820;4.406;2022-12-18T03:20:17;18.97;;;10.03;;
19312;SDS011;9791;50.820;4.406;2022-12-18T03:22:44;20.93;;;10.10;;
19312;SDS011;9791;50.820;4.406;2022-12-18T03:25:13;16.80;;;9.90;;
19312;SDS011;9791;50.820;4.406;2022-12-18T03:27:42;17.90;;;10.27;;
19312;SDS011;9791;50.820;4.406;2022-12-18T03:30:09;16.47;;;9.63;;
19312;SDS011;9791;50.820;4.406;2022-12-18T03:32:42;20.70;;;10.37;;
19312;SDS011;9791;50.820;4.406;2022-12-18T03:35:09;20.20;;;10.63;;
19312;SDS011;9791;50.820;4.406;2022-12-18T03:37:36;20.47;;;9.63;;
19312;SDS011;9791;50.820;4.406;2022-12-18T03:40:02;18.80;;;10.43;;
19312;SDS011;9791;50.820;4.406;2022-12-18T03:42:30;18.43;;;11.00;;
19312;SDS011;9791;50.820;4.406;2022-12-18T03:47:28;16.43;;;10.17;;
19312;SDS011;9791;50.820;4.406;2022-12-18T03:52:27;19.90;;;9.77;;
19312;SDS011;9791;50.820;4.406;2022-12-18T03:54:55;16.20;;;9.03;;
19312;SDS011;9791;50.820;4.406;2022-12-18T03:57:23;18.27;;;9.03;;
19312;SDS011;9791;50.820;4.406;2022-12-18T03:59:51;18.33;;;9.67;;
19312;SDS011;9791;50.820;4.406;2022-12-18T04:02:20;19.87;;;9.53;;
19312;SDS011;9791;50.820;4.406;2022-12-18T04:04:47;17.80;;;9.80;;
19312;SDS011;9791;50.820;4.406;2022-12-18T04:07:16;18.80;;;10.17;;
19312;SDS011;9791;50.820;4.406;2022-12-18T04:09:42;18.67;;;10.03;;
19312;SDS011;9791;50.820;4.406;2022-12-18T04:12:09;18.90;;;9.20;;
19312;SDS011;9791;50.820;4.406;2022-12-18T04:14:35;16.90;;;8.90;;
19312;SDS011;9791;50.820;4.406;2022-12-18T04:17:02;15.87;;;8.93;;
19312;SDS011;9791;50.820;4.406;2022-12-18T04:19:28;20.13;;;9.43;;
19312;SDS011;9791;50.820;4.406;2022-12-18T04:21:54;15.80;;;8.93;;
19312;SDS011;9791;50.820;4.406;2022-12-18T04:24:20;15.60;;;8.70;;
19312;SDS011;9791;50.820;4.406;2022-12-18T04:26:46;15.90;;;8.87;;
19312;SDS011;9791;50.820;4.406;2022-12-18T04:29:12;15.70;;;8.70;;
19312;SDS011;9791;50.820;4.406;2022-12-18T04:31:38;18.07;;;9.50;;
19312;SDS011;9791;50.820;4.406;2022-12-18T04:34:04;13.60;;;8.50;;
19312;SDS011;9791;50.820;4.406;2022-12-18T04:36:30;17.20;;;9.07;;
19312;SDS011;9791;50.820;4.406;2022-12-18T04:38:56;15.67;;;8.57;;
19312;SDS011;9791;50.820;4.406;2022-12-18T04:41:22;15.80;;;8.47;;
19312;SDS011;9791;50.820;4.406;2022-12-18T04:43:48;16.37;;;8.77;;
19312;SDS011;9791;50.820;4.406;2022-12-18T04:46:14;15.47;;;8.57;;
19312;SDS011;9791;50.820;4.406;2022-12-18T04:48:40;13.10;;;7.80;;
19312;SDS011;9791;50.820;4.406;2022-12-18T04:51:06;15.23;;;7.90;;
19312;SDS011;9791;50.820;4.406;2022-12-18T04:53:33;16.60;;;8.50;;
19312;SDS011;9791;50.820;4.406;2022-12-18T04:56:06;16.33;;;8.27;;
19312;SDS011;9791;50.820;4.406;2022-12-18T04:58:32;14.67;;;9.07;;
19312;SDS011;9791;50.820;4.406;2022-12-18T05:00:58;17.17;;;9.27;;
19312;SDS011;9791;50.820;4.406;2022-12-18T05:03:24;16.23;;;8.90;;
19312;SDS011;9791;50.820;4.406;2022-12-18T05:05:51;19.20;;;9.07;;
19312;SDS011;9791;50.820;4.406;2022-12-18T05:08:17;18.17;;;9.23;;
19312;SDS011;9791;50.820;4.406;2022-12-18T05:10:43;16.93;;;8.57;;
19312;SDS011;9791;50.820;4.406;2022-12-18T05:13:10;18.20;;;9.50;;
19312;SDS011;9791;50.820;4.406;2022-12-18T05:15:36;17.77;;;10.00;;
19312;SDS011;9791;50.820;4.406;2022-12-18T05:18:03;17.63;;;9.33;;
19312;SDS011;9791;50.820;4.406;2022-12-18T05:20:29;18.87;;;9.40;;
19312;SDS011;9791;50.820;4.406;2022-12-18T05:22:57;20.33;;;9.33;;
19312;SDS011;9791;50.820;4.406;2022-12-18T05:25:23;16.63;;;9.13;;
19312;SDS011;9791;50.820;4.406;2022-12-18T05:27:51;17.63;;;9.67;;
19312;SDS011;9791;50.820;4.406;2022-12-18T05:30:17;14.37;;;8.13;;
19312;SDS011;9791;50.820;4.406;2022-12-18T05:32:43;17.67;;;10.07;;
19312;SDS011;9791;50.820;4.406;2022-12-18T05:35:09;14.87;;;9.00;;
19312;SDS011;9791;50.820;4.406;2022-12-18T05:37:35;16.90;;;8.30;;
19312;SDS011;9791;50.820;4.406;2022-12-18T05:40:02;16.33;;;8.13;;
19312;SDS011;9791;50.820;4.406;2022-12-18T05:42:29;15.50;;;8.40;;
19312;SDS011;9791;50.820;4.406;2022-12-18T05:44:56;16.40;;;8.57;;
19312;SDS011;9791;50.820;4.406;2022-12-18T05:47:22;15.87;;;8.20;;
19312;SDS011;9791;50.820;4.406;2022-12-18T05:49:48;18.13;;;8.40;;
19312;SDS011;9791;50.820;4.406;2022-12-18T05:52:14;12.10;;;7.43;;
19312;SDS011;9791;50.820;4.406;2022-12-18T05:54:40;16.60;;;8.37;;
19312;SDS011;9791;50.820;4.406;2022-12-18T05:57:07;16.30;;;8.37;;
19312;SDS011;9791;50.820;4.406;2022-12-18T05:59:33;12.97;;;7.27;;
19312;SDS011;9791;50.820;4.406;2022-12-18T06:01:59;14.03;;;6.20;;
19312;SDS011;9791;50.820;4.406;2022-12-18T06:04:26;12.30;;;6.57;;
19312;SDS011;9791;50.820;4.406;2022-12-18T06:06:53;12.77;;;7.00;;
19312;SDS011;9791;50.820;4.406;2022-12-18T06:09:19;13.60;;;7.10;;
19312;SDS011;9791;50.820;4.406;2022-12-18T06:11:45;12.43;;;6.93;;
19312;SDS011;9791;50.820;4.406;2022-12-18T06:14:11;13.80;;;7.07;;
19312;SDS011;9791;50.820;4.406;2022-12-18T06:16:37;12.83;;;6.33;;
19312;SDS011;9791;50.820;4.406;2022-12-18T06:19:04;13.23;;;7.00;;
19312;SDS011;9791;50.820;4.406;2022-12-18T06:21:30;10.67;;;6.47;;
19312;SDS011;9791;50.820;4.406;2022-12-18T06:23:57;15.93;;;7.70;;
19312;SDS011;9791;50.820;4.406;2022-12-18T06:26:23;12.53;;;6.73;;
19312;SDS011;9791;50.820;4.406;2022-12-18T06:28:49;15.13;;;7.47;;
19312;SDS011;9791;50.820;4.406;2022-12-18T06:31:15;12.80;;;7.23;;
19312;SDS011;9791;50.820;4.406;2022-12-18T06:33:41;12.43;;;6.63;;
19312;SDS011;9791;50.820;4.406;2022-12-18T06:36:09;12.33;;;6.47;;
19312;SDS011;9791;50.820;4.406;2022-12-18T06:38:35;14.30;;;7.20;;
19312;SDS011;9791;50.820;4.406;2022-12-18T06:41:08;12.13;;;7.00;;
19312;SDS011;9791;50.820;4.406;2022-12-18T06:43:34;12.40;;;6.70;;
19312;SDS011;9791;50.820;4.406;2022-12-18T06:46:01;11.60;;;6.60;;
19312;SDS011;9791;50.820;4.406;2022-12-18T06:48:28;13.67;;;6.20;;
19312;SDS011;9791;50.820;4.406;2022-12-18T06:50:54;14.27;;;6.93;;
19312;SDS011;9791;50.820;4.406;2022-12-18T06:53:20;14.20;;;6.53;;
19312;SDS011;9791;50.820;4.406;2022-12-18T06:55:48;13.23;;;6.90;;
19312;SDS011;9791;50.820;4.406;2022-12-18T06:58:14;13.67;;;6.67;;
19312;SDS011;9791;50.820;4.406;2022-12-18T07:00:40;12.63;;;6.37;;
19312;SDS011;9791;50.820;4.406;2022-12-18T07:03:06;12.30;;;6.30;;
19312;SDS011;9791;50.820;4.406;2022-12-18T07:05:32;11.43;;;6.50;;
19312;SDS011;9791;50.820;4.406;2022-12-18T07:07:58;13.30;;;6.67;;
19312;SDS011;9791;50.820;4.406;2022-12-18T07:10:24;13.80;;;6.53;;
19312;SDS011;9791;50.820;4.406;2022-12-18T07:12:50;11.43;;;6.97;;
19312;SDS011;9791;50.820;4.406;2022-12-18T07:15:17;11.10;;;6.73;;
19312;SDS011;9791;50.820;4.406;2022-12-18T07:17:43;13.30;;;6.43;;
19312;SDS011;9791;50.820;4.406;2022-12-18T07:20:11;12.40;;;6.73;;
19312;SDS011;9791;50.820;4.406;2022-12-18T07:22:37;11.57;;;6.37;;
19312;SDS011;9791;50.820;4.406;2022-12-18T07:25:03;13.30;;;6.27;;
19312;SDS011;9791;50.820;4.406;2022-12-18T07:27:29;10.30;;;6.17;;
19312;SDS011;9791;50.820;4.406;2022-12-18T07:29:55;12.20;;;6.50;;
19312;SDS011;9791;50.820;4.406;2022-12-18T07:32:23;11.03;;;6.73;;
19312;SDS011;9791;50.820;4.406;2022-12-18T07:34:49;11.33;;;5.93;;
19312;SDS011;9791;50.820;4.406;2022-12-18T07:37:15;10.27;;;5.97;;
19312;SDS011;9791;50.820;4.406;2022-12-18T07:39:41;10.30;;;5.87;;
19312;SDS011;9791;50.820;4.406;2022-12-18T07:42:07;11.33;;;6.53;;
19312;SDS011;9791;50.820;4.406;2022-12-18T07:44:52;11.40;;;5.97;;
19312;SDS011;9791;50.820;4.406;2022-12-18T07:47:18;12.07;;;6.13;;
19312;SDS011;9791;50.820;4.406;2022-12-18T07:49:44;10.93;;;5.83;;
19312;SDS011;9791;50.820;4.406;2022-12-18T07:52:10;12.33;;;6.67;;
19312;SDS011;9791;50.820;4.406;2022-12-18T07:54:37;13.17;;;6.50;;
19312;SDS011;9791;50.820;4.406;2022-12-18T07:57:03;10.27;;;5.23;;
19312;SDS011;9791;50.820;4.406;2022-12-18T07:59:29;10.00;;;5.53;;
19312;SDS011;9791;50.820;4.406;2022-12-18T08:01:55;10.67;;;5.53;;
19312;SDS011;9791;50.820;4.406;2022-12-18T08:04:21;9.40;;;5.20;;
19312;SDS011;9791;50.820;4.406;2022-12-18T08:06:47;11.00;;;6.40;;
19312;SDS011;9791;50.820;4.406;2022-12-18T08:09:13;14.03;;;6.53;;
19312;SDS011;9791;50.820;4.406;2022-12-18T08:11:39;10.13;;;6.00;;
19312;SDS011;9791;50.820;4.406;2022-12-18T08:14:06;10.90;;;6.17;;
19312;SDS011;9791;50.820;4.406;2022-12-18T08:16:32;9.77;;;5.37;;
19312;SDS011;9791;50.820;4.406;2022-12-18T08:18:58;11.03;;;5.83;;
19312;SDS011;9791;50.820;4.406;2022-12-18T08:21:28;9.30;;;5.10;;
19312;SDS011;9791;50.820;4.406;2022-12-18T08:23:55;11.63;;;5.13;;
19312;SDS011;9791;50.820;4.406;2022-12-18T08:26:21;8.33;;;5.20;;
19312;SDS011;9791;50.820;4.406;2022-12-18T08:28:48;9.93;;;5.83;;
19312;SDS011;9791;50.820;4.406;2022-12-18T08:31:14;9.13;;;5.40;;
19312;SDS011;9791;50.820;4.406;2022-12-18T08:33:40;9.73;;;5.33;;
19312;SDS011;9791;50.820;4.406;2022-12-18T08:36:07;10.07;;;5.57;;
19312;SDS011;9791;50.820;4.406;2022-12-18T08:38:34;10.73;;;5.27;;
19312;SDS011;9791;50.820;4.406;2022-12-18T08:41:00;11.37;;;6.03;;
19312;SDS011;9791;50.820;4.406;2022-12-18T08:43:26;13.40;;;6.13;;
19312;SDS011;9791;50.820;4.406;2022-12-18T08:46:11;9.53;;;5.47;;
19312;SDS011;9791;50.820;4.406;2022-12-18T08:48:37;9.00;;;5.30;;
19312;SDS011;9791;50.820;4.406;2022-12-18T08:51:03;9.77;;;5.77;;
19312;SDS011;9791;50.820;4.406;2022-12-18T08:53:29;11.13;;;6.17;;
19312;SDS011;9791;50.820;4.406;2022-12-18T08:55:56;12.60;;;7.10;;
19312;SDS011;9791;50.820;4.406;2022-12-18T08:58:22;11.40;;;6.33;;
19312;SDS011;9791;50.820;4.406;2022-12-18T09:00:48;10.20;;;5.87;;
19312;SDS011;9791;50.820;4.406;2022-12-18T09:03:15;11.60;;;6.47;;
19312;SDS011;9791;50.820;4.406;2022-12-18T09:05:41;11.20;;;6.30;;
19312;SDS011;9791;50.820;4.406;2022-12-18T09:08:07;10.20;;;5.80;;
19312;SDS011;9791;50.820;4.406;2022-12-18T09:10:34;10.67;;;6.40;;
19312;SDS011;9791;50.820;4.406;2022-12-18T09:13:00;9.40;;;5.93;;
19312;SDS011;9791;50.820;4.406;2022-12-18T09:15:26;10.50;;;6.60;;
19312;SDS011;9791;50.820;4.406;2022-12-18T09:17:52;10.70;;;6.73;;
19312;SDS011;9791;50.820;4.406;2022-12-18T09:20:20;9.87;;;6.37;;
19312;SDS011;9791;50.820;4.406;2022-12-18T09:22:47;13.33;;;6.73;;
19312;SDS011;9791;50.820;4.406;2022-12-18T09:25:13;9.90;;;6.37;;
19312;SDS011;9791;50.820;4.406;2022-12-18T09:27:39;13.67;;;7.20;;
19312;SDS011;9791;50.820;4.406;2022-12-18T09:30:05;11.37;;;6.13;;
19312;SDS011;9791;50.820;4.406;2022-12-18T09:32:31;12.53;;;7.57;;
19312;SDS011;9791;50.820;4.406;2022-12-18T09:34:58;14.23;;;7.53;;
19312;SDS011;9791;50.820;4.406;2022-12-18T09:37:24;13.27;;;7.30;;
19312;SDS011;9791;50.820;4.406;2022-12-18T09:39:50;15.20;;;7.10;;
19312;SDS011;9791;50.820;4.406;2022-12-18T09:42:20;13.30;;;7.30;;
19312;SDS011;9791;50.820;4.406;2022-12-18T09:44:50;12.57;;;7.30;;
19312;SDS011;9791;50.820;4.406;2022-12-18T09:47:18;14.90;;;8.57;;
19312;SDS011;9791;50.820;4.406;2022-12-18T09:49:47;15.03;;;8.20;;
19312;SDS011;9791;50.820;4.406;2022-12-18T09:54:42;15.93;;;8.10;;
19312;SDS011;9791;50.820;4.406;2022-12-18T09:57:20;14.07;;;7.10;;
19312;SDS011;9791;50.820;4.406;2022-12-18T09:59:51;13.57;;;8.30;;
19312;SDS011;9791;50.820;4.406;2022-12-18T10:02:19;13.77;;;8.03;;
19312;SDS011;9791;50.820;4.406;2022-12-18T10:04:55;15.30;;;8.10;;
19312;SDS011;9791;50.820;4.406;2022-12-18T10:07:29;14.83;;;8.40;;
19312;SDS011;9791;50.820;4.406;2022-12-18T10:12:54;14.60;;;8.53;;
19312;SDS011;9791;50.820;4.406;2022-12-18T10:15:27;17.10;;;8.50;;
19312;SDS011;9791;50.820;4.406;2022-12-18T10:17:57;15.70;;;8.47;;
19312;SDS011;9791;50.820;4.406;2022-12-18T10:25:54;15.77;;;8.77;;
19312;SDS011;9791;50.820;4.406;2022-12-18T10:28:21;16.23;;;8.37;;
19312;SDS011;9791;50.820;4.406;2022-12-18T10:30:48;15.83;;;8.87;;
19312;SDS011;9791;50.820;4.406;2022-12-18T10:33:21;13.23;;;8.47;;
19312;SDS011;9791;50.820;4.406;2022-12-18T10:35:51;14.70;;;8.53;;
19312;SDS011;9791;50.820;4.406;2022-12-18T10:43:16;16.37;;;9.20;;
19312;SDS011;9791;50.820;4.406;2022-12-18T10:45:57;14.23;;;9.60;;
19312;SDS011;9791;50.820;4.406;2022-12-18T10:48:24;16.97;;;9.63;;
19312;SDS011;9791;50.820;4.406;2022-12-18T10:50:50;17.13;;;8.63;;
19312;SDS011;9791;50.820;4.406;2022-12-18T10:53:21;15.27;;;9.03;;
19312;SDS011;9791;50.820;4.406;2022-12-18T10:55:48;17.50;;;9.80;;
19312;SDS011;9791;50.820;4.406;2022-12-18T10:58:36;16.67;;;9.73;;
19312;SDS011;9791;50.820;4.406;2022-12-18T11:03:33;15.43;;;9.70;;
19312;SDS011;9791;50.820;4.406;2022-12-18T11:08:29;16.60;;;9.13;;
19312;SDS011;9791;50.820;4.406;2022-12-18T11:10:55;16.10;;;9.03;;
19312;SDS011;9791;50.820;4.406;2022-12-18T11:13:22;16.73;;;9.17;;
19312;SDS011;9791;50.820;4.406;2022-12-18T11:15:49;14.43;;;8.87;;
19312;SDS011;9791;50.820;4.406;2022-12-18T11:21:06;18.20;;;10.10;;
19312;SDS011;9791;50.820;4.406;2022-12-18T11:23:33;14.97;;;9.07;;
19312;SDS011;9791;50.820;4.406;2022-12-18T11:25:59;14.43;;;8.57;;
19312;SDS011;9791;50.820;4.406;2022-12-18T11:31:19;17.50;;;9.23;;
19312;SDS011;9791;50.820;4.406;2022-12-18T11:36:42;14.33;;;8.47;;
19312;SDS011;9791;50.820;4.406;2022-12-18T11:39:13;17.90;;;9.70;;
19312;SDS011;9791;50.820;4.406;2022-12-18T11:41:45;15.93;;;9.07;;
19312;SDS011;9791;50.820;4.406;2022-12-18T11:44:35;15.13;;;8.77;;
19312;SDS011;9791;50.820;4.406;2022-12-18T11:49:50;15.00;;;9.07;;
19312;SDS011;9791;50.820;4.406;2022-12-18T11:52:24;17.33;;;9.30;;
19312;SDS011;9791;50.820;4.406;2022-12-18T11:54:52;18.83;;;9.73;;
19312;SDS011;9791;50.820;4.406;2022-12-18T12:00:20;16.17;;;8.80;;
19312;SDS011;9791;50.820;4.406;2022-12-18T12:10:52;15.37;;;9.27;;
19312;SDS011;9791;50.820;4.406;2022-12-18T12:16:24;16.27;;;9.30;;
19312;SDS011;9791;50.820;4.406;2022-12-18T12:21:37;16.00;;;8.80;;
19312;SDS011;9791;50.820;4.406;2022-12-18T12:26:49;17.40;;;9.47;;
19312;SDS011;9791;50.820;4.406;2022-12-18T12:29:23;17.77;;;9.53;;
19312;SDS011;9791;50.820;4.406;2022-12-18T12:31:56;19.47;;;9.63;;
19312;SDS011;9791;50.820;4.406;2022-12-18T12:37:16;17.33;;;9.20;;
19312;SDS011;9791;50.820;4.406;2022-12-18T12:39:46;17.00;;;9.23;;
19312;SDS011;9791;50.820;4.406;2022-12-18T12:42:23;18.13;;;9.97;;
19312;SDS011;9791;50.820;4.406;2022-12-18T12:45:14;18.23;;;9.73;;
19312;SDS011;9791;50.820;4.406;2022-12-18T12:47:41;16.50;;;9.73;;
19312;SDS011;9791;50.820;4.406;2022-12-18T12:50:15;18.67;;;10.07;;
19312;SDS011;9791;50.820;4.406;2022-12-18T12:52:51;19.70;;;10.43;;
19312;SDS011;9791;50.820;4.406;2022-12-18T12:55:25;16.13;;;10.43;;
19312;SDS011;9791;50.820;4.406;2022-12-18T12:57:55;16.20;;;9.87;;
19312;SDS011;9791;50.820;4.406;2022-12-18T13:00:23;18.30;;;10.63;;
19312;SDS011;9791;50.820;4.406;2022-12-18T13:02:52;19.03;;;10.33;;
19312;SDS011;9791;50.820;4.406;2022-12-18T13:08:07;18.93;;;10.30;;
19312;SDS011;9791;50.820;4.406;2022-12-18T13:10:34;21.60;;;10.97;;
19312;SDS011;9791;50.820;4.406;2022-12-18T13:20:34;16.63;;;10.13;;
19312;SDS011;9791;50.820;4.406;2022-12-18T13:23:01;21.47;;;10.80;;
19312;SDS011;9791;50.820;4.406;2022-12-18T13:25:35;20.47;;;10.80;;
19312;SDS011;9791;50.820;4.406;2022-12-18T13:28:04;19.73;;;10.77;;
19312;SDS011;9791;50.820;4.406;2022-12-18T13:40:57;21.97;;;11.80;;
19312;SDS011;9791;50.820;4.406;2022-12-18T13:48:35;20.80;;;10.97;;
19312;SDS011;9791;50.820;4.406;2022-12-18T13:51:03;22.37;;;12.20;;
19312;SDS011;9791;50.820;4.406;2022-12-18T13:53:49;22.37;;;12.80;;
19312;SDS011;9791;50.820;4.406;2022-12-18T13:56:16;24.97;;;11.83;;
19312;SDS011;9791;50.820;4.406;2022-12-18T13:58:42;20.17;;;12.20;;
19312;SDS011;9791;50.820;4.406;2022-12-18T14:01:26;22.27;;;12.77;;
19312;SDS011;9791;50.820;4.406;2022-12-18T14:04:08;24.93;;;12.63;;
19312;SDS011;9791;50.820;4.406;2022-12-18T14:06:34;23.27;;;12.37;;
19312;SDS011;9791;50.820;4.406;2022-12-18T14:09:00;24.53;;;13.23;;
19312;SDS011;9791;50.820;4.406;2022-12-18T14:11:28;22.77;;;12.30;;
19312;SDS011;9791;50.820;4.406;2022-12-18T14:13:55;23.67;;;13.30;;
19312;SDS011;9791;50.820;4.406;2022-12-18T14:16:22;27.90;;;13.60;;
19312;SDS011;9791;50.820;4.406;2022-12-18T14:18:55;25.87;;;12.93;;
19312;SDS011;9791;50.820;4.406;2022-12-18T14:21:22;24.47;;;13.23;;
19312;SDS011;9791;50.820;4.406;2022-12-18T14:24:02;23.63;;;13.67;;
19312;SDS011;9791;50.820;4.406;2022-12-18T14:26:29;22.87;;;12.60;;
19312;SDS011;9791;50.820;4.406;2022-12-18T14:28:59;24.93;;;13.30;;
19312;SDS011;9791;50.820;4.406;2022-12-18T14:31:30;25.40;;;13.37;;
19312;SDS011;9791;50.820;4.406;2022-12-18T14:33:58;26.63;;;14.10;;
19312;SDS011;9791;50.820;4.406;2022-12-18T14:36:25;26.77;;;13.63;;
19312;SDS011;9791;50.820;4.406;2022-12-18T14:38:52;26.20;;;13.67;;
19312;SDS011;9791;50.820;4.406;2022-12-18T14:41:19;27.60;;;15.00;;
19312;SDS011;9791;50.820;4.406;2022-12-18T14:43:49;25.80;;;14.80;;
19312;SDS011;9791;50.820;4.406;2022-12-18T14:46:32;26.90;;;14.57;;
19312;SDS011;9791;50.820;4.406;2022-12-18T14:48:59;27.03;;;13.43;;
19312;SDS011;9791;50.820;4.406;2022-12-18T14:51:27;25.20;;;14.10;;
19312;SDS011;9791;50.820;4.406;2022-12-18T14:54:00;25.37;;;14.50;;
19312;SDS011;9791;50.820;4.406;2022-12-18T14:56:31;23.17;;;12.97;;
19312;SDS011;9791;50.820;4.406;2022-12-18T14:58:59;27.77;;;14.00;;
19312;SDS011;9791;50.820;4.406;2022-12-18T15:03:54;28.43;;;14.83;;
19312;SDS011;9791;50.820;4.406;2022-12-18T15:06:30;26.63;;;14.43;;
19312;SDS011;9791;50.820;4.406;2022-12-18T15:08:57;27.40;;;14.37;;
19312;SDS011;9791;50.820;4.406;2022-12-18T15:11:27;25.53;;;14.00;;
19312;SDS011;9791;50.820;4.406;2022-12-18T15:13:53;28.53;;;15.10;;
19312;SDS011;9791;50.820;4.406;2022-12-18T15:16:19;30.07;;;15.27;;
19312;SDS011;9791;50.820;4.406;2022-12-18T15:18:46;30.27;;;15.10;;
19312;SDS011;9791;50.820;4.406;2022-12-18T15:21:16;27.30;;;14.00;;
19312;SDS011;9791;50.820;4.406;2022-12-18T15:26:09;25.70;;;14.80;;
19312;SDS011;9791;50.820;4.406;2022-12-18T15:28:43;25.10;;;13.60;;
19312;SDS011;9791;50.820;4.406;2022-12-18T15:33:37;27.10;;;13.30;;
19312;SDS011;9791;50.820;4.406;2022-12-18T15:36:04;25.33;;;14.43;;
19312;SDS011;9791;50.820;4.406;2022-12-18T15:38:31;24.70;;;13.70;;
19312;SDS011;9791;50.820;4.406;2022-12-18T15:40:57;26.73;;;13.67;;
19312;SDS011;9791;50.820;4.406;2022-12-18T15:43:23;32.30;;;14.60;;
19312;SDS011;9791;50.820;4.406;2022-12-18T15:46:02;26.37;;;13.13;;
19312;SDS011;9791;50.820;4.406;2022-12-18T15:48:29;26.73;;;13.77;;
19312;SDS011;9791;50.820;4.406;2022-12-18T15:50:56;22.97;;;13.30;;
19312;SDS011;9791;50.820;4.406;2022-12-18T15:53:23;25.90;;;14.17;;
19312;SDS011;9791;50.820;4.406;2022-12-18T15:55:50;24.70;;;13.63;;
19312;SDS011;9791;50.820;4.406;2022-12-18T15:58:34;25.87;;;13.70;;
19312;SDS011;9791;50.820;4.406;2022-12-18T16:01:00;23.70;;;13.67;;
19312;SDS011;9791;50.820;4.406;2022-12-18T16:03:26;26.00;;;13.57;;
19312;SDS011;9791;50.820;4.406;2022-12-18T16:05:52;27.00;;;13.93;;
19312;SDS011;9791;50.820;4.406;2022-12-18T16:08:19;26.97;;;13.47;;
19312;SDS011;9791;50.820;4.406;2022-12-18T16:10:45;23.67;;;12.13;;
19312;SDS011;9791;50.820;4.406;2022-12-18T16:13:11;22.33;;;12.83;;
19312;SDS011;9791;50.820;4.406;2022-12-18T16:15:38;26.77;;;14.00;;
19312;SDS011;9791;50.820;4.406;2022-12-18T16:18:04;25.50;;;12.87;;
19312;SDS011;9791;50.820;4.406;2022-12-18T16:20:30;26.27;;;13.27;;
19312;SDS011;9791;50.820;4.406;2022-12-18T16:22:56;25.93;;;14.07;;
19312;SDS011;9791;50.820;4.406;2022-12-18T16:25:23;24.70;;;13.60;;
19312;SDS011;9791;50.820;4.406;2022-12-18T16:27:50;22.43;;;12.20;;
19312;SDS011;9791;50.820;4.406;2022-12-18T16:30:17;24.53;;;12.63;;
19312;SDS011;9791;50.820;4.406;2022-12-18T16:32:43;25.53;;;12.63;;
19312;SDS011;9791;50.820;4.406;2022-12-18T16:35:10;25.17;;;13.57;;
19312;SDS011;9791;50.820;4.406;2022-12-18T16:37:36;22.47;;;12.73;;
19312;SDS011;9791;50.820;4.406;2022-12-18T16:40:04;24.53;;;13.20;;
19312;SDS011;9791;50.820;4.406;2022-12-18T16:42:31;26.87;;;13.67;;